Time;durP1;ratioP1;P1;durP2;ratioP2;P2;SDS_P1;SDS_P2;PMS_P1;PMS_P2;Temp;Humidity;BMP_temperature;BMP_pressure;BME280_temperature;BME280_humidity;BME280_pressure;Samples;Min_cycle;Max_cycle;Signal;HPM_P1;HPM_P2
2022/06/07 00:02:30;;;;;;;4.00;3.55;;;;;;;13.39;84.54;101136.50;4972466;28;20030;-68
2022/06/07 00:04:57;;;;;;;6.00;3.25;;;;;;;13.35;84.56;101129.19;4983058;28;20030;-69
2022/06/07 00:07:23;;;;;;;3.72;2.92;;;;;;;13.33;84.52;101128.53;4970463;28;20050;-68
2022/06/07 00:09:50;;;;;;;6.25;3.92;;;;;;;13.34;84.38;101133.59;4980110;28;20037;-68
2022/06/07 00:12:17;;;;;;;4.32;3.47;;;;;;;13.33;84.14;101131.94;4968815;28;20034;-69
2022/06/07 00:14:43;;;;;;;8.82;3.45;;;;;;;13.34;84.28;101133.59;4945079;28;20129;-69
2022/06/07 00:17:09;;;;;;;5.18;3.38;;;;;;;13.33;84.29;101134.56;4992130;28;20488;-69
2022/06/07 00:19:35;;;;;;;4.30;3.13;;;;;;;13.30;84.37;101126.22;4970072;28;20104;-68
2022/06/07 00:22:01;;;;;;;5.97;3.10;;;;;;;13.22;84.11;101134.84;4988687;28;20030;-69
2022/06/07 00:24:27;;;;;;;6.30;3.42;;;;;;;13.12;84.30;101129.03;4955617;28;20041;-69
2022/06/07 00:26:53;;;;;;;5.53;4.00;;;;;;;12.98;84.44;101127.91;4986673;28;20511;-68
2022/06/07 00:29:21;;;;;;;6.00;3.83;;;;;;;12.87;84.84;101126.44;4973021;28;20057;-68
2022/06/07 00:31:47;;;;;;;4.78;3.80;;;;;;;12.84;85.13;101127.56;4990587;28;20062;-68
2022/06/07 00:34:13;;;;;;;6.00;3.60;;;;;;;12.85;85.04;101126.59;4955801;28;20046;-69
2022/06/07 00:36:40;;;;;;;4.28;3.45;;;;;;;12.84;85.13;101124.16;4989885;28;20029;-69
2022/06/07 00:39:06;;;;;;;7.25;4.18;;;;;;;12.85;84.92;101125.78;4989416;28;20086;-69
2022/06/07 00:41:32;;;;;;;6.50;3.83;;;;;;;12.85;84.99;101120.59;4990998;28;20042;-69
2022/06/07 00:44:26;;;;;;;7.15;3.30;;;;;;;12.84;85.08;101121.56;4974469;28;20073;-69
2022/06/07 00:46:53;;;;;;;;;;;;;;;12.79;85.44;101114.25;4987586;28;20863;-69
2022/06/07 00:49:20;;;;;;;4.20;3.55;;;;;;;12.78;85.48;101109.19;4989108;28;19959;-69
2022/06/07 00:51:46;;;;;;;5.32;3.50;;;;;;;12.76;85.72;101111.16;4991427;28;20056;-68
2022/06/07 00:54:22;;;;;;;5.93;4.10;;;;;;;12.74;85.86;101108.72;4959432;28;20030;-69
2022/06/07 00:56:52;;;;;;;4.93;3.97;;;;;;;12.68;86.08;101111.13;4991697;28;20113;-69
2022/06/07 00:59:22;;;;;;;8.50;3.70;;;;;;;12.62;86.34;101099.59;4973713;28;20424;-68
2022/06/07 01:01:50;;;;;;;6.22;4.65;;;;;;;12.52;86.71;101099.75;4992303;28;20044;-69
2022/06/07 01:04:17;;;;;;;6.20;3.83;;;;;;;12.41;87.21;101102.66;4971351;28;20033;-69
2022/06/07 01:12:16;;;;;;;4.78;4.15;;;;;;;12.22;88.06;101094.19;4987996;28;20089;-68
2022/06/07 01:14:42;;;;;;;5.78;4.13;;;;;;;12.21;87.95;101100.38;4973430;28;20034;-69
2022/06/07 01:17:08;;;;;;;8.88;4.88;;;;;;;12.23;88.05;101102.81;4977410;28;20452;-69
2022/06/07 01:19:35;;;;;;;8.02;4.47;;;;;;;12.22;88.20;101096.81;4992719;28;20070;-68
2022/06/07 01:22:01;;;;;;;6.63;4.10;;;;;;;12.23;88.15;101106.22;4985150;28;20034;-69
2022/06/07 01:24:27;;;;;;;5.43;3.50;;;;;;;12.24;88.15;101105.25;4971022;28;20049;-68
2022/06/07 01:27:03;;;;;;;7.53;4.93;;;;;;;12.26;88.24;101103.31;4981266;28;20879;-69
2022/06/07 01:29:29;;;;;;;8.57;3.50;;;;;;;12.26;88.18;101100.72;4974351;28;20045;-69
2022/06/07 01:31:55;;;;;;;7.03;3.67;;;;;;;12.24;87.94;101100.06;4967105;28;20054;-69
2022/06/07 01:34:25;;;;;;;15.55;4.15;;;;;;;12.17;87.98;101101.66;4969248;28;20106;-69
2022/06/07 01:36:54;;;;;;;6.32;3.22;;;;;;;12.12;88.45;101087.50;4985213;28;20022;-69
2022/06/07 01:44:43;;;;;;;6.80;3.95;;;;;;;12.02;88.82;101088.47;4997129;28;20049;-72
2022/06/07 01:47:12;;;;;;;7.07;3.78;;;;;;;11.99;89.15;101080.16;4983607;28;20026;-72
2022/06/07 01:49:47;;;;;;;6.88;3.80;;;;;;;11.95;89.79;101084.84;4973678;28;20037;-71
2022/06/07 01:52:14;;;;;;;8.40;3.30;;;;;;;11.96;89.76;101081.31;4989023;28;20026;-71
2022/06/07 01:54:42;;;;;;;6.63;3.40;;;;;;;11.98;89.56;101081.13;4982135;28;20110;-72
2022/06/07 01:57:08;;;;;;;6.03;3.40;;;;;;;11.96;89.71;101083.06;4989456;28;20027;-72
2022/06/07 01:59:35;;;;;;;7.28;3.40;;;;;;;11.95;89.93;101077.06;4979815;28;20563;-72
2022/06/07 02:02:02;;;;;;;5.38;2.90;;;;;;;11.95;89.72;101071.88;4973251;28;20033;-72
2022/06/07 02:04:28;;;;;;;8.93;2.83;;;;;;;11.96;89.71;101072.66;4967140;28;20038;-71
2022/06/07 02:06:54;;;;;;;8.43;3.20;;;;;;;12.03;89.38;101063.28;4976002;28;20387;-72
2022/06/07 02:09:30;;;;;;;5.15;2.80;;;;;;;11.98;89.32;101060.31;4981035;28;20152;-71
2022/06/07 02:11:58;;;;;;;6.07;2.72;;;;;;;12.06;88.64;101065.56;5002025;28;20052;-71
2022/06/07 02:14:24;;;;;;;9.07;3.42;;;;;;;12.03;88.58;101071.06;4987298;28;20072;-72
2022/06/07 02:16:49;;;;;;;4.68;3.00;;;;;;;11.96;88.92;101059.69;5002520;28;20196;-72
2022/06/07 02:19:17;;;;;;;3.85;2.60;;;;;;;12.00;88.75;101058.41;4986641;28;20120;-72
2022/06/07 02:21:44;;;;;;;5.70;2.58;;;;;;;12.02;88.49;101059.88;4983367;28;20038;-72
2022/06/07 02:24:12;;;;;;;5.68;2.40;;;;;;;11.96;88.58;101057.06;4989058;28;20030;-72
2022/06/07 02:26:48;;;;;;;6.25;3.17;;;;;;;11.96;88.43;101057.06;4989139;28;20408;-71
2022/06/07 02:29:21;;;;;;;5.88;3.50;;;;;;;11.95;88.02;101060.66;5005388;28;20030;-71
2022/06/07 02:31:51;;;;;;;9.60;3.03;;;;;;;12.11;87.33;101052.91;4988208;28;20038;-71
2022/06/07 02:34:19;;;;;;;6.00;3.10;;;;;;;12.00;87.37;101061.81;4984451;28;20099;-71
2022/06/07 02:36:48;;;;;;;7.65;2.30;;;;;;;11.96;87.88;101055.31;4997657;28;20650;-71
2022/06/07 02:39:14;;;;;;;3.88;2.35;;;;;;;11.93;88.00;101057.41;4999182;28;20121;-71
2022/06/07 02:41:41;;;;;;;10.25;2.70;;;;;;;11.91;87.69;101054.97;4986905;28;20034;-71
2022/06/07 02:44:07;;;;;;;3.50;2.40;;;;;;;11.87;88.02;101051.84;5004420;28;20038;-71
2022/06/07 02:46:32;;;;;;;5.43;2.20;;;;;;;11.85;87.73;101056.38;5001069;28;20092;-71
2022/06/07 02:48:59;;;;;;;4.78;2.20;;;;;;;11.86;87.44;101049.38;4986279;28;20068;-72
2022/06/07 02:51:25;;;;;;;3.97;2.47;;;;;;;11.84;87.30;101053.94;4986132;28;20037;-71
2022/06/07 02:53:53;;;;;;;6.15;2.50;;;;;;;11.85;87.33;101058.97;4983438;28;20033;-71
2022/06/07 02:56:19;;;;;;;6.25;2.83;;;;;;;11.90;87.07;101058.53;4983784;28;20095;-71
2022/06/07 02:58:45;;;;;;;5.90;2.65;;;;;;;11.95;86.41;101060.66;4985507;28;20563;-71
2022/06/07 03:01:11;;;;;;;4.72;2.30;;;;;;;11.87;86.82;101054.44;4998892;28;20057;-71
2022/06/07 03:03:41;;;;;;;9.15;3.20;;;;;;;11.92;86.84;101058.38;4985295;28;20441;-71
2022/06/07 03:06:09;;;;;;;6.57;2.70;;;;;;;11.86;86.38;101055.41;4983040;28;20026;-71
2022/06/07 03:08:36;;;;;;;5.85;2.80;;;;;;;11.83;86.52;101060.13;4985015;28;20145;-71
2022/06/07 03:11:04;;;;;;;7.10;2.72;;;;;;;11.86;86.47;101052.78;4996136;28;20404;-71
2022/06/07 03:13:31;;;;;;;12.32;2.95;;;;;;;11.83;86.78;101057.53;4983756;28;20033;-71
2022/06/07 03:15:58;;;;;;;6.20;2.75;;;;;;;11.78;86.95;101055.38;4981580;28;20045;-71
2022/06/07 03:18:25;;;;;;;6.43;2.83;;;;;;;11.84;86.43;101053.94;4987353;28;20038;-71
2022/06/07 03:20:51;;;;;;;5.18;2.80;;;;;;;11.81;86.59;101056.84;4998757;28;20045;-71
2022/06/07 03:23:17;;;;;;;5.25;3.00;;;;;;;11.74;87.43;101056.66;4984064;28;20112;-71
2022/06/07 03:25:49;;;;;;;8.02;3.22;;;;;;;11.79;87.08;101064.81;5000805;28;20395;-71
2022/06/07 03:28:16;;;;;;;5.43;2.70;;;;;;;11.75;87.39;101055.69;4984758;28;20088;-71
2022/06/07 03:30:42;;;;;;;5.68;2.60;;;;;;;11.79;86.75;101056.19;4983267;28;20026;-71
2022/06/07 03:33:12;;;;;;;8.90;3.28;;;;;;;11.80;86.19;101053.44;4982194;28;20037;-71
2022/06/07 03:35:39;;;;;;;6.57;3.22;;;;;;;11.77;86.27;101060.72;4984156;28;20526;-71
2022/06/07 03:38:05;;;;;;;6.53;2.42;;;;;;;11.79;86.42;101061.38;4983084;28;20041;-71
2022/06/07 03:40:44;;;;;;;6.55;2.65;;;;;;;11.76;86.43;101051.31;4966800;28;20487;-71
2022/06/07 03:43:12;;;;;;;5.97;2.40;;;;;;;11.73;86.48;101055.03;4970039;28;20073;-71
2022/06/07 03:45:40;;;;;;;11.40;2.50;;;;;;;11.75;86.38;101062.66;4967375;28;20029;-71
2022/06/07 03:48:09;;;;;;;10.20;3.00;;;;;;;11.77;86.80;101065.91;4999189;28;20499;-71
2022/06/07 03:50:36;;;;;;;8.55;2.83;;;;;;;11.82;86.41;101067.06;4982391;28;20037;-71
2022/06/07 03:53:03;;;;;;;13.32;2.72;;;;;;;11.80;86.20;101069.03;4984721;28;20396;-71
2022/06/07 03:55:29;;;;;;;8.02;3.05;;;;;;;11.79;86.11;101066.56;4986177;28;20112;-71
2022/06/07 03:58:02;;;;;;;8.80;2.80;;;;;;;11.82;86.06;101074.88;5003104;28;20034;-71
2022/06/07 04:00:27;;;;;;;10.73;2.60;;;;;;;11.77;86.21;101069.34;4968515;28;20369;-71
2022/06/07 04:02:57;;;;;;;5.35;3.13;;;;;;;11.77;86.46;101071.94;4985745;28;20026;-71
2022/06/07 04:05:22;;;;;;;10.18;2.80;;;;;;;11.81;86.17;101070.66;5003468;28;20038;-71
2022/06/07 04:10:33;;;;;;;5.85;2.22;;;;;;;11.94;86.37;101070.25;4998673;28;20245;-71
2022/06/07 04:12:59;;;;;;;4.03;2.30;;;;;;;11.95;86.20;101068.47;4985122;28;20061;-71
2022/06/07 04:15:25;;;;;;;7.70;2.80;;;;;;;11.95;86.49;101073.66;4988974;28;20048;-71
2022/06/07 04:17:53;;;;;;;8.73;2.53;;;;;;;12.00;85.70;101064.41;4982454;28;20519;-71
2022/06/07 04:20:24;;;;;;;6.93;2.60;;;;;;;12.04;86.18;101070.91;4986684;28;20046;-71
2022/06/07 04:22:52;;;;;;;5.25;2.70;;;;;;;12.12;85.41;101077.13;4986441;28;20026;-71
2022/06/07 04:25:18;;;;;;;7.82;2.60;;;;;;;12.11;85.26;101075.47;4988237;28;20083;-71
2022/06/07 04:27:44;;;;;;;6.25;3.35;;;;;;;12.14;85.14;101073.38;4985881;28;20034;-71
2022/06/07 04:30:11;;;;;;;8.85;2.83;;;;;;;12.31;85.34;101070.81;4968841;28;20052;-71
2022/06/07 04:32:46;;;;;;;6.28;2.63;;;;;;;12.32;84.93;101073.25;4986922;28;20132;-72
2022/06/07 04:35:15;;;;;;;5.00;2.28;;;;;;;12.33;85.16;101080.06;5002334;28;20029;-71
2022/06/07 04:37:41;;;;;;;10.93;3.50;;;;;;;12.33;85.49;101071.47;4972601;28;20057;-72
2022/06/07 04:40:08;;;;;;;7.57;2.90;;;;;;;12.46;84.52;101077.00;4985880;28;20035;-71
2022/06/07 04:42:36;;;;;;;9.25;2.70;;;;;;;12.43;84.32;101075.53;4985653;28;20608;-71
2022/06/07 04:45:14;;;;;;;8.20;2.67;;;;;;;12.50;84.01;101086.09;4973859;28;20041;-71
2022/06/07 04:48:01;;;;;;;17.33;3.47;;;;;;;12.55;83.59;101078.63;4987039;28;20049;-71
2022/06/07 04:50:30;;;;;;;7.03;3.67;;;;;;;12.62;83.64;101086.56;4983053;28;20030;-71
2022/06/07 04:52:56;;;;;;;8.70;3.05;;;;;;;12.64;83.68;101082.84;4982734;28;20053;-71
2022/06/07 04:55:23;;;;;;;11.88;2.78;;;;;;;12.61;83.26;101079.75;4982613;28;20108;-71
2022/06/07 04:57:49;;;;;;;12.07;3.50;;;;;;;12.73;83.26;101080.25;4983673;28;20096;-71
2022/06/07 05:00:18;;;;;;;6.07;3.05;;;;;;;12.72;83.31;101086.44;5016935;28;20042;-71
2022/06/07 05:02:51;;;;;;;9.77;3.38;;;;;;;12.77;82.65;101081.53;4988244;28;20033;-68
2022/06/07 05:05:17;;;;;;;8.45;2.88;;;;;;;12.81;82.30;101082.88;4983524;28;20586;-71
2022/06/07 05:07:44;;;;;;;5.90;2.75;;;;;;;12.80;82.48;101081.22;4983713;28;20040;-71
2022/06/07 05:10:13;;;;;;;6.57;2.90;;;;;;;12.87;82.35;101087.41;4985175;28;20124;-71
2022/06/07 05:12:44;;;;;;;11.75;4.15;;;;;;;12.91;81.99;101083.50;4972701;28;20042;-71
2022/06/07 05:15:16;;;;;;;7.75;2.92;;;;;;;12.89;82.15;101088.06;4984829;28;20029;-72
2022/06/07 05:17:47;;;;;;;6.75;3.03;;;;;;;12.97;82.30;101093.25;4983609;28;20026;-71
2022/06/07 05:20:14;;;;;;;11.13;3.47;;;;;;;12.99;82.03;101095.69;4988854;28;20493;-71
2022/06/07 05:22:41;;;;;;;7.18;2.80;;;;;;;13.09;81.92;101090.28;4982260;28;20034;-71
2022/06/07 05:25:09;;;;;;;9.57;3.40;;;;;;;13.12;81.92;101090.78;5001648;28;20030;-71
2022/06/07 05:27:44;;;;;;;12.38;3.30;;;;;;;13.26;81.13;101097.13;4986346;28;20088;-71
2022/06/07 05:30:15;;;;;;;8.65;3.47;;;;;;;13.32;80.67;101100.88;5002159;28;20112;-71
2022/06/07 05:33:04;;;;;;;7.13;2.92;;;;;;;13.37;80.60;101093.34;4988391;28;20508;-71
2022/06/07 05:35:42;;;;;;;9.98;2.97;;;;;;;13.35;80.84;101092.72;4985245;28;20117;-71
2022/06/07 05:38:12;;;;;;;6.72;3.17;;;;;;;13.39;80.94;101088.78;4969645;28;20030;-69
2022/06/07 05:40:40;;;;;;;9.23;2.95;;;;;;;13.45;79.98;101095.97;4986482;28;20108;-69
2022/06/07 05:43:12;;;;;;;11.10;3.03;;;;;;;13.58;80.00;101096.25;4987597;28;20056;-71
2022/06/07 05:45:47;;;;;;;8.23;2.78;;;;;;;13.80;79.36;101088.66;4969271;28;20033;-71
2022/06/07 05:48:17;;;;;;;9.40;3.08;;;;;;;14.04;77.76;101090.31;4982116;28;20025;-72
2022/06/07 05:50:50;;;;;;;6.82;2.42;;;;;;;14.37;76.12;101088.34;4984517;28;20411;-71
2022/06/07 05:53:19;;;;;;;7.35;3.00;;;;;;;14.74;74.78;101088.56;5000725;28;20384;-68
2022/06/07 05:55:45;;;;;;;11.00;3.92;;;;;;;15.02;74.21;101091.41;4985752;28;20033;-68
2022/06/07 05:58:11;;;;;;;5.43;2.67;;;;;;;15.23;72.05;101082.88;4984697;28;20037;-68
2022/06/07 06:00:38;;;;;;;6.18;2.45;;;;;;;15.59;71.66;101084.75;4970606;28;20036;-68
2022/06/07 06:03:05;;;;;;;6.85;2.40;;;;;;;15.83;71.33;101080.25;4986140;28;20100;-69
2022/06/07 06:05:36;;;;;;;5.95;2.65;;;;;;;16.10;69.73;101086.56;5005344;28;20500;-68
2022/06/07 06:11:13;;;;;;;12.48;3.13;;;;;;;16.73;67.25;101086.75;4998151;28;20034;-69
2022/06/07 06:13:42;;;;;;;6.97;2.45;;;;;;;16.88;65.77;101089.31;4986621;28;20034;-68
2022/06/07 06:16:14;;;;;;;9.57;2.42;;;;;;;17.06;65.22;101096.69;4982943;28;20511;-69
2022/06/07 06:18:45;;;;;;;6.22;2.33;;;;;;;17.17;64.62;101082.25;4979760;28;20582;-68
2022/06/07 06:21:14;;;;;;;7.38;2.00;;;;;;;17.47;64.27;101075.75;4987043;28;20066;-68
2022/06/07 06:23:40;;;;;;;8.95;2.47;;;;;;;17.58;63.40;101079.63;4970831;28;20026;-69
2022/06/07 06:26:13;;;;;;;5.95;2.28;;;;;;;17.38;64.56;101089.22;4983511;28;20116;-69
2022/06/07 06:28:40;;;;;;;5.88;1.90;;;;;;;17.51;63.71;101091.91;4977767;28;20034;-68
2022/06/07 06:31:08;;;;;;;3.75;1.98;;;;;;;17.27;64.75;101096.63;4988050;28;20044;-69
2022/06/07 06:33:45;;;;;;;5.95;2.50;;;;;;;17.28;64.93;101081.72;4983303;28;20040;-69
2022/06/07 06:36:13;;;;;;;5.13;1.67;;;;;;;17.83;63.31;101089.59;4969565;28;20034;-69
2022/06/07 06:38:39;;;;;;;3.08;1.80;;;;;;;18.42;60.92;101082.88;4994935;28;20036;-69
2022/06/07 06:41:18;;;;;;;6.57;1.90;;;;;;;18.78;59.90;101087.75;4980694;28;20815;-69
2022/06/07 06:43:45;;;;;;;3.63;1.60;;;;;;;19.08;59.89;101089.97;4982412;28;20126;-68
2022/06/07 06:46:33;;;;;;;7.28;1.90;;;;;;;19.28;59.00;101087.28;4985903;28;20041;-69
2022/06/07 06:49:01;;;;;;;3.05;1.90;;;;;;;19.74;58.04;101081.09;4983250;28;20570;-69
2022/06/07 06:51:28;;;;;;;6.07;1.63;;;;;;;19.83;55.63;101079.00;4987198;28;20392;-68
2022/06/07 06:54:01;;;;;;;4.15;1.75;;;;;;;19.75;56.72;101085.31;4983417;28;20030;-69
2022/06/07 06:56:36;;;;;;;7.40;1.92;;;;;;;19.77;55.47;101083.28;4985240;28;20096;-69
2022/06/07 06:59:15;;;;;;;4.18;1.60;;;;;;;20.06;56.86;101082.94;4990150;28;20042;-69
2022/06/07 07:01:45;;;;;;;4.32;1.65;;;;;;;20.54;55.13;101079.75;4984427;28;20033;-69
2022/06/07 07:04:15;;;;;;;4.63;1.60;;;;;;;19.92;56.50;101085.63;4970784;28;20052;-69
2022/06/07 07:06:41;;;;;;;4.68;1.58;;;;;;;19.76;55.86;101091.38;4983352;28;20021;-69
2022/06/07 07:09:09;;;;;;;6.07;1.70;;;;;;;19.39;57.31;101096.38;5001587;28;20038;-68
2022/06/07 07:11:41;;;;;;;3.95;1.67;;;;;;;18.92;58.50;101091.19;4989527;28;20030;-69
2022/06/07 07:14:10;;;;;;;4.05;1.48;;;;;;;19.16;58.93;101087.13;4985745;28;20057;-69
2022/06/07 07:16:39;;;;;;;3.15;1.40;;;;;;;20.12;57.17;101084.72;4987925;28;20042;-69
2022/06/07 07:19:06;;;;;;;3.95;1.40;;;;;;;20.77;54.59;101079.97;4984085;28;21830;-69
2022/06/07 07:21:39;;;;;;;10.63;2.15;;;;;;;20.88;54.36;101083.75;4972630;28;20478;-68
2022/06/07 07:24:12;;;;;;;4.35;1.30;;;;;;;20.91;53.35;101085.16;4984311;28;20041;-69
2022/06/07 07:26:43;;;;;;;7.45;1.92;;;;;;;20.99;53.85;101079.59;4990868;28;20033;-68
2022/06/07 07:29:11;;;;;;;2.97;1.48;;;;;;;20.79;52.19;101085.03;4970861;28;20045;-69
2022/06/07 07:31:38;;;;;;;3.53;1.52;;;;;;;20.61;54.02;101083.19;4978156;28;20037;-69
2022/06/07 07:34:08;;;;;;;5.13;1.45;;;;;;;21.25;52.69;101073.22;4990553;28;20570;-69
2022/06/07 07:36:36;;;;;;;3.08;1.70;;;;;;;21.99;52.55;101072.31;4981846;28;20400;-69
2022/06/07 07:39:02;;;;;;;3.47;1.52;;;;;;;22.36;51.42;101073.00;4984931;28;21628;-69
2022/06/07 07:41:33;;;;;;;7.00;1.52;;;;;;;22.34;48.47;101075.09;4970207;28;20034;-69
2022/06/07 07:44:00;;;;;;;6.20;1.20;;;;;;;22.73;48.70;101070.97;4988951;23;20053;-76
2022/06/07 07:46:30;;;;;;;4.97;1.30;;;;;;;22.39;48.99;101074.38;4926529;29;20530;-77
2022/06/07 07:48:56;;;;;;;6.45;1.63;;;;;;;22.50;49.35;101074.38;4932055;28;20039;-76
2022/06/07 07:51:27;;;;;;;4.50;1.45;;;;;;;22.01;50.66;101075.53;4947671;28;20476;-76
2022/06/07 07:53:56;;;;;;;5.57;3.15;;;;;;;21.92;50.20;101078.47;4933438;28;20058;-76
2022/06/07 07:56:23;;;;;;;4.43;1.35;;;;;;;21.85;50.41;101082.25;4945469;28;20031;-76
2022/06/07 07:58:51;;;;;;;8.85;1.67;;;;;;;21.61;51.63;101087.44;4962628;28;20074;-77
2022/06/07 08:01:21;;;;;;;3.42;1.27;;;;;;;21.37;52.84;101092.53;4960007;28;20658;-76
2022/06/07 08:03:48;;;;;;;4.05;1.60;;;;;;;21.10;53.63;101080.69;4928318;28;20488;-77
2022/06/07 08:06:21;;;;;;;6.10;1.50;;;;;;;20.99;52.98;101079.59;4930368;29;20027;-76
2022/06/07 08:08:50;;;;;;;6.38;1.77;;;;;;;21.63;51.53;101074.81;4948220;28;20051;-76
2022/06/07 08:11:18;;;;;;;3.58;1.35;;;;;;;21.56;53.15;101079.38;4944081;28;20047;-76
2022/06/07 08:13:44;;;;;;;4.70;1.30;;;;;;;21.63;53.73;101074.81;4933858;28;20488;-76
2022/06/07 08:16:09;;;;;;;3.65;1.20;;;;;;;21.51;53.26;101066.03;4942461;28;20098;-76
2022/06/07 08:18:36;;;;;;;5.60;1.25;;;;;;;21.28;52.46;101079.88;4937606;28;20038;-76
2022/06/07 08:21:10;;;;;;;3.33;1.40;;;;;;;21.02;52.14;101068.63;4944594;28;20031;-76
2022/06/07 08:23:36;;;;;;;4.55;1.80;;;;;;;21.15;50.79;101071.09;4955844;28;20040;-77
2022/06/07 08:26:04;;;;;;;5.80;2.13;;;;;;;21.30;50.01;101072.56;4945742;28;20480;-76
2022/06/07 08:28:35;;;;;;;5.10;1.13;;;;;;;21.39;49.87;101076.50;4944640;28;20799;-76
2022/06/07 08:31:00;;;;;;;2.60;1.13;;;;;;;21.31;49.97;101071.53;4946113;28;20480;-77
2022/06/07 08:38:59;;;;;;;4.88;1.13;;;;;;;21.25;50.00;101061.84;4942519;28;20031;-74
2022/06/07 08:41:55;;;;;;;3.95;1.02;;;;;;;21.86;49.82;101063.56;4946098;28;20493;-76
2022/06/07 08:44:46;;;;;;;5.75;1.45;;;;;;;21.91;48.91;101055.78;4958007;28;20044;-76
2022/06/07 08:47:17;;;;;;;6.60;1.90;;;;;;;21.64;50.64;101068.50;4932728;29;20039;-77
2022/06/07 08:49:43;;;;;;;6.15;2.33;;;;;;;21.03;51.35;101062.31;4947472;28;20468;-77
2022/06/07 08:52:16;;;;;;;2.08;1.02;;;;;;;20.94;50.74;101079.41;4931942;29;20027;-76
2022/06/07 08:54:43;;;;;;;8.43;1.10;;;;;;;20.80;52.39;101081.38;4944956;28;20042;-77
2022/06/07 08:57:22;;;;;;;3.70;1.30;;;;;;;20.35;51.71;101073.63;4930646;29;20115;-78
2022/06/07 08:59:51;;;;;;;5.75;1.42;;;;;;;20.31;52.59;101077.72;4944370;28;20039;-77
2022/06/07 09:02:55;;;;;;;5.22;1.50;;;;;;;20.65;53.40;101076.47;4960405;28;20031;-77
2022/06/07 09:05:20;;;;;;;7.03;1.88;;;;;;;21.13;52.87;101073.13;4926670;29;20046;-76
2022/06/07 09:07:47;;;;;;;6.05;1.23;;;;;;;20.99;52.49;101074.31;4946973;28;20031;-77
2022/06/07 09:13:19;;;;;;;6.75;1.30;;;;;;;20.82;52.84;101078.53;4947713;28;20043;-77
2022/06/07 09:15:50;;;;;;;3.03;1.00;;;;;;;21.14;53.61;101063.41;4944393;28;20166;-74
2022/06/07 09:18:19;;;;;;;4.45;1.15;;;;;;;21.11;52.67;101056.72;4945899;28;20044;-76
2022/06/07 09:20:48;;;;;;;3.15;1.02;;;;;;;21.33;52.03;101054.47;4946157;28;20050;-75
2022/06/07 09:23:31;;;;;;;5.78;1.20;;;;;;;21.54;51.85;101050.56;4943725;28;20035;-76
2022/06/07 09:26:10;;;;;;;2.95;1.27;;;;;;;21.67;51.40;101054.88;4958318;28;21507;-76
2022/06/07 09:28:36;;;;;;;4.05;1.30;;;;;;;21.96;50.48;101047.16;4960212;28;20071;-76
2022/06/07 09:31:10;;;;;;;4.07;1.00;;;;;;;21.95;51.51;101042.94;4946400;28;20034;-76
2022/06/07 09:33:48;;;;;;;3.55;1.00;;;;;;;22.04;51.25;101044.22;4948852;28;20043;-74
2022/06/07 09:36:24;;;;;;;4.00;0.80;;;;;;;21.80;51.63;101039.91;4959521;28;20042;-76
2022/06/07 09:39:00;;;;;;;5.57;1.30;;;;;;;21.81;51.16;101039.66;4946048;28;20031;-75
2022/06/07 09:41:54;;;;;;;2.17;1.10;;;;;;;21.96;52.25;101041.88;4944141;28;20059;-76
2022/06/07 09:44:31;;;;;;;2.75;1.00;;;;;;;;;;4944491;28;20043;-74
2022/06/07 09:47:15;;;;;;;4.88;1.25;;;;;;;22.34;52.82;101040.75;4960684;28;20733;-76
2022/06/07 09:49:48;;;;;;;3.53;1.33;;;;;;;22.44;52.43;101040.16;4943218;28;20043;-75
2022/06/07 09:52:26;;;;;;;5.55;1.27;;;;;;;22.36;51.41;101038.69;4947818;28;20083;-76
2022/06/07 09:55:19;;;;;;;4.50;1.30;;;;;;;22.97;51.23;101039.22;4947849;28;20483;-76
2022/06/07 09:58:04;;;;;;;1.40;0.90;;;;;;;23.35;51.07;101047.66;4951493;28;20584;-77
2022/06/07 10:00:40;;;;;;;4.05;0.75;;;;;;;23.55;48.13;101032.16;4933077;29;20047;-76
2022/06/07 10:03:24;;;;;;;1.52;0.80;;;;;;;23.53;48.97;101031.59;4946290;28;20031;-77
2022/06/07 10:06:14;;;;;;;6.15;0.82;;;;;;;23.63;48.85;101036.28;4956516;28;20032;-76
2022/06/07 10:09:13;;;;;;;6.28;1.65;;;;;;;23.09;49.45;101033.91;4946420;28;20131;-76
2022/06/07 10:12:20;;;;;;;1.98;0.60;;;;;;;23.01;49.07;101032.41;4959970;28;20039;-75
2022/06/07 10:15:02;;;;;;;2.90;0.88;;;;;;;23.20;47.67;101035.72;4943970;28;20054;-76
2022/06/07 10:18:05;;;;;;;3.13;0.80;;;;;;;23.68;48.60;101023.16;4943044;28;20125;-75
2022/06/07 10:20:46;;;;;;;2.38;0.68;;;;;;;23.86;48.50;101033.53;4941303;28;20055;-77
2022/06/07 10:23:32;;;;;;;4.55;1.48;;;;;;;23.71;49.44;101025.31;4946612;28;20483;-75
2022/06/07 10:26:16;;;;;;;3.25;1.08;;;;;;;23.79;49.57;101027.59;4936978;28;20103;-76
2022/06/07 10:28:57;;;;;;;3.22;1.10;;;;;;;23.83;48.86;101020.78;4940514;28;20032;-77
2022/06/07 10:31:32;;;;;;;1.75;0.63;;;;;;;23.89;48.00;101017.19;4945308;28;20053;-76
2022/06/07 10:34:03;;;;;;;3.22;1.20;;;;;;;23.69;48.33;101022.09;4941557;28;20066;-76
2022/06/07 10:36:43;;;;;;;2.90;0.82;;;;;;;23.79;48.08;101013.53;4954176;28;20102;-76
2022/06/07 10:39:25;;;;;;;3.20;0.93;;;;;;;23.75;49.09;101018.47;4943077;28;20050;-76
2022/06/07 10:42:02;;;;;;;3.35;0.75;;;;;;;23.55;49.54;101018.16;4945806;28;20129;-77
2022/06/07 10:44:47;;;;;;;4.97;0.85;;;;;;;23.22;48.55;101015.13;4944638;28;20701;-77
2022/06/07 10:47:23;;;;;;;4.38;1.00;;;;;;;23.05;48.78;101024.84;4941437;28;20034;-75
2022/06/07 10:50:21;;;;;;;4.22;1.30;;;;;;;22.94;50.15;101026.44;4947713;28;20027;-76
2022/06/07 10:53:06;;;;;;;4.25;0.90;;;;;;;23.04;49.90;101013.47;4886676;28;20051;-76
2022/06/07 10:55:39;;;;;;;2.17;0.73;;;;;;;23.17;51.44;101015.06;4943768;28;20551;-76
2022/06/07 10:58:27;;;;;;;2.70;0.80;;;;;;;23.02;48.81;101026.09;4945806;28;20462;-77
2022/06/07 11:01:06;;;;;;;1.90;1.15;;;;;;;23.00;49.15;101014.97;4963107;28;20062;-77
2022/06/07 11:03:31;;;;;;;3.38;0.70;;;;;;;22.89;49.36;101019.22;4957453;28;20036;-77
2022/06/07 11:09:19;;;;;;;3.58;1.27;;;;;;;22.97;50.45;101010.13;4948578;28;20108;-78
2022/06/07 11:11:46;;;;;;;3.75;0.93;;;;;;;23.15;49.78;101011.03;4950401;28;20035;-77
2022/06/07 11:14:14;;;;;;;3.13;1.15;;;;;;;23.29;50.41;101018.47;4945349;28;20039;-76
2022/06/07 11:16:49;;;;;;;3.30;0.93;;;;;;;23.30;51.33;101004.22;4945321;28;20020;-76
2022/06/07 11:19:15;;;;;;;3.30;0.88;;;;;;;23.29;49.94;101004.44;4933139;29;20036;-75
2022/06/07 11:21:47;;;;;;;8.02;1.67;;;;;;;23.51;48.46;101001.94;4944326;28;20035;-77
2022/06/07 11:24:17;;;;;;;6.53;1.88;;;;;;;23.02;49.76;101010.25;4965706;28;20102;-76
2022/06/07 11:26:52;;;;;;;2.33;1.08;;;;;;;22.73;51.41;101007.53;4958436;28;20035;-76
2022/06/07 11:29:29;;;;;;;4.43;1.10;;;;;;;22.78;49.81;101006.84;4944497;28;20043;-75
2022/06/07 11:31:55;;;;;;;5.53;0.98;;;;;;;22.73;50.14;100999.59;4964141;28;20440;-77
2022/06/07 11:34:31;;;;;;;3.83;1.25;;;;;;;22.64;50.48;101016.84;4942130;28;20099;-76
2022/06/07 11:37:09;;;;;;;2.70;0.90;;;;;;;22.63;50.76;101004.66;4945311;28;20045;-76
2022/06/07 11:39:37;;;;;;;4.97;1.17;;;;;;;22.62;50.96;100995.16;4930620;28;20050;-75
2022/06/07 11:42:16;;;;;;;3.03;1.77;;;;;;;22.42;52.01;101010.53;4924138;28;20043;-76
2022/06/07 11:44:41;;;;;;;3.80;0.90;;;;;;;22.44;51.80;101011.91;4942531;28;20035;-75
2022/06/07 11:47:06;;;;;;;4.70;1.30;;;;;;;22.46;52.10;101011.69;4940514;28;20551;-75
2022/06/07 11:49:40;;;;;;;2.00;0.93;;;;;;;22.51;50.13;101011.81;4943793;28;20165;-76
2022/06/07 11:52:14;;;;;;;5.00;1.50;;;;;;;21.89;50.71;101001.59;4942719;28;20085;-75
2022/06/07 11:54:45;;;;;;;6.63;0.98;;;;;;;21.80;51.28;101011.66;4943842;28;20055;-76
2022/06/07 11:57:29;;;;;;;5.57;1.33;;;;;;;21.81;51.17;101007.19;4928027;29;20031;-76
2022/06/07 12:00:15;;;;;;;2.45;0.73;;;;;;;21.76;52.41;101013.16;4936741;28;20044;-75
2022/06/07 12:02:42;;;;;;;3.05;0.77;;;;;;;21.46;51.84;101018.44;4944942;28;20495;-76
2022/06/07 12:05:26;;;;;;;2.28;0.73;;;;;;;21.19;52.74;101016.91;4943290;28;20035;-76
2022/06/07 12:08:02;;;;;;;4.50;1.05;;;;;;;21.18;54.45;101023.19;4929579;28;20396;-76
2022/06/07 12:10:41;;;;;;;3.13;0.90;;;;;;;20.98;55.80;101028.72;4947083;28;20043;-77
2022/06/07 12:13:15;;;;;;;3.47;0.80;;;;;;;21.18;54.65;101020.56;4948034;28;20099;-76